Time;durP1;ratioP1;P1;durP2;ratioP2;P2;SDS_P1;SDS_P2;PMS_P1;PMS_P2;Temp;Humidity;BMP_temperature;BMP_pressure;BME280_temperature;BME280_humidity;BME280_pressure;Samples;Min_cycle;Max_cycle;Signal;HPM_P1;HPM_P2
2023/06/16 00:00:43;;;;;;;;;;;;;;;20.72;39.54;100722.81;4997463;28;6845;-75
2023/06/16 00:03:09;;;;;;;;;;;;;;;20.64;39.69;100727.94;4963848;28;6804;-75
2023/06/16 00:05:35;;;;;;;;;;;;;;;20.54;39.79;100722.63;4950553;28;7186;-75
2023/06/16 00:08:03;;;;;;;;;;;;;;;20.46;40.43;100728.56;4960943;28;10081;-75
2023/06/16 00:10:29;;;;;;;;;;;;;;;20.39;40.07;100720.72;4982343;28;6812;-76
2023/06/16 00:12:56;;;;;;;;;;;;;;;20.32;40.72;100721.47;4946004;28;6868;-75
2023/06/16 00:15:21;;;;;;;;;;;;;;;20.25;40.43;100724.84;4981902;28;6800;-76
2023/06/16 00:17:49;;;;;;;;;;;;;;;20.17;41.19;100716.06;4943443;28;6967;-74
2023/06/16 00:20:19;;;;;;;;;;;;;;;20.09;41.37;100724.66;4958952;28;6832;-73
2023/06/16 00:22:47;;;;;;;;;;;;;;;20.03;41.07;100716.75;4979348;28;6808;-76
2023/06/16 00:25:18;;;;;;;;;;;;;;;19.96;41.23;100720.13;4996177;28;6983;-74
2023/06/16 00:27:44;;;;;;;;;;;;;;;19.90;41.60;100717.41;4958712;28;6935;-75
2023/06/16 00:30:10;;;;;;;;;;;;;;;19.83;42.05;100726.81;4964313;28;6804;-73
2023/06/16 00:32:36;;;;;;;;;;;;;;;19.75;41.51;100724.13;4960691;28;7893;-75
2023/06/16 00:35:02;;;;;;;;;;;;;;;19.69;42.07;100718.81;4947487;28;7137;-74
2023/06/16 00:37:27;;;;;;;;;;;;;;;19.65;42.35;100727.44;4977657;28;7251;-73
2023/06/16 00:39:54;;;;;;;;;;;;;;;19.59;42.45;100728.22;4979316;28;6803;-75
2023/06/16 00:42:20;;;;;;;;;;;;;;;19.54;42.16;100727.25;4980089;28;7066;-74
2023/06/16 00:44:45;;;;;;;;;;;;;;;19.47;42.77;100728.03;4997084;28;6772;-76
2023/06/16 00:47:11;;;;;;;;;;;;;;;19.42;42.51;100730.53;4994264;28;7035;-73
2023/06/16 00:49:37;;;;;;;;;;;;;;;19.35;42.48;100734.75;4957384;28;6999;-75
2023/06/16 00:52:08;;;;;;;;;;;;;;;19.28;43.18;100736.38;4961996;28;7257;-74
2023/06/16 00:54:34;;;;;;;;;;;;;;;19.24;43.39;100742.38;4953366;28;6951;-75
2023/06/16 00:57:00;;;;;;;;;;;;;;;19.20;43.39;100732.75;4999057;28;7023;-74
2023/06/16 00:59:27;;;;;;;;;;;;;;;19.21;43.48;100731.91;4957482;28;6953;-74
2023/06/16 01:01:55;;;;;;;;;;;;;;;19.19;43.57;100728.41;4978231;28;6811;-75
2023/06/16 01:04:24;;;;;;;;;;;;;;;19.14;43.47;100730.06;4981982;28;6792;-76
2023/06/16 01:07:40;;;;;;;;;;;;;;;19.10;43.29;100729.13;4979621;28;6826;-74
2023/06/16 01:10:35;;;;;;;;;;;;;;;19.03;43.60;100724.66;4942846;28;7125;-76
2023/06/16 01:13:30;;;;;;;;;;;;;;;18.98;43.78;100727.13;4994867;28;6808;-76
2023/06/16 01:16:01;;;;;;;;;;;;;;;18.92;44.08;100729.63;4978994;28;6827;-74
2023/06/16 01:18:29;;;;;;;;;;;;;;;18.87;43.57;100726.06;4943936;28;7240;-77
2023/06/16 01:21:10;;;;;;;;;;;;;;;18.83;44.07;100729.44;4966199;28;6804;-76
2023/06/16 01:24:13;;;;;;;;;;;;;;;18.78;44.27;100720.69;4960211;28;7086;-75
2023/06/16 01:26:46;;;;;;;;;;;;;;;18.72;44.18;100724.06;4964389;28;6820;-76
2023/06/16 01:29:14;;;;;;;;;;;;;;;18.69;43.89;100729.19;4961922;28;6816;-76
2023/06/16 01:31:42;;;;;;;;;;;;;;;18.65;44.39;100727.38;4981468;28;7240;-76
2023/06/16 01:34:11;;;;;;;;;;;;;;;18.59;44.09;100722.94;4959945;28;6935;-76
2023/06/16 01:36:40;;;;;;;;;;;;;;;18.55;44.46;100729.78;4993784;28;6810;-76
2023/06/16 01:39:09;;;;;;;;;;;;;;;18.51;44.48;100724.50;4981773;28;7009;-76
2023/06/16 01:41:36;;;;;;;;;;;;;;;18.45;45.14;100723.53;4960471;28;7003;-76
2023/06/16 01:44:05;;;;;;;;;;;;;;;18.41;44.83;100726.91;4985261;28;6808;-74
2023/06/16 01:46:32;;;;;;;;;;;;;;;18.38;45.02;100723.34;4962435;28;7252;-75
2023/06/16 01:48:59;;;;;;;;;;;;;;;18.32;44.64;100725.00;4956464;28;6884;-76
2023/06/16 01:51:25;;;;;;;;;;;;;;;18.27;45.01;100723.16;4998987;28;7293;-77
2023/06/16 01:53:53;;;;;;;;;;;;;;;18.22;45.04;100727.34;4946553;28;7280;-74
2023/06/16 01:56:19;;;;;;;;;;;;;;;18.17;45.30;100722.94;4941954;28;7045;-76
2023/06/16 01:58:45;;;;;;;;;;;;;;;18.13;45.41;100715.91;4962344;28;7188;-76
2023/06/16 02:01:18;;;;;;;;;;;;;;;18.11;45.34;100712.44;4997239;28;6884;-75
2023/06/16 02:04:03;;;;;;;;;;;;;;;18.11;45.64;100712.44;4966781;28;7398;-72
2023/06/16 02:06:38;;;;;;;;;;;;;;;18.07;45.63;100715.81;4982204;28;7265;-72
2023/06/16 02:09:05;;;;;;;;;;;;;;;18.04;45.59;100714.00;4963242;28;6796;-72
2023/06/16 02:11:34;;;;;;;;;;;;;;;18.03;45.92;100724.31;4964584;28;7182;-72
2023/06/16 02:14:00;;;;;;;;;;;;;;;17.98;45.43;100723.34;4970062;28;7166;-72
2023/06/16 02:16:26;;;;;;;;;;;;;;;17.94;46.16;100737.97;4960425;28;6935;-73
2023/06/16 02:18:53;;;;;;;;;;;;;;;17.88;46.08;100730.91;5012070;28;7730;-73
2023/06/16 02:21:21;;;;;;;;;;;;;;;17.82;46.06;100730.75;4964507;28;7011;-75
2023/06/16 02:23:46;;;;;;;;;;;;;;;17.77;46.35;100727.19;4985294;28;6939;-74
2023/06/16 02:26:12;;;;;;;;;;;;;;;17.73;46.04;100727.94;5015961;28;6783;-73
2023/06/16 02:28:38;;;;;;;;;;;;;;;17.70;45.85;100733.06;5015276;28;6780;-74
2023/06/16 02:31:03;;;;;;;;;;;;;;;17.65;46.60;100724.28;5012657;28;6752;-74
2023/06/16 02:33:29;;;;;;;;;;;;;;;17.59;46.49;100723.31;4997061;28;7084;-74
2023/06/16 02:35:54;;;;;;;;;;;;;;;17.55;46.64;100724.06;5001550;28;6791;-74
2023/06/16 02:38:20;;;;;;;;;;;;;;;17.51;46.36;100723.97;5012872;28;6800;-76
2023/06/16 02:40:46;;;;;;;;;;;;;;;17.46;46.96;100727.31;4987132;28;7463;-74
2023/06/16 02:43:11;;;;;;;;;;;;;;;17.43;46.62;100728.97;5008725;28;6812;-75
2023/06/16 02:45:37;;;;;;;;;;;;;;;17.40;47.25;100731.47;5010746;28;6775;-73
2023/06/16 02:48:03;;;;;;;;;;;;;;;17.37;46.94;100733.97;4970463;28;7354;-74
2023/06/16 02:50:29;;;;;;;;;;;;;;;17.31;47.04;100722.63;5008532;28;6775;-75
2023/06/16 02:52:55;;;;;;;;;;;;;;;17.28;47.14;100727.72;5014436;28;6799;-76
2023/06/16 02:55:21;;;;;;;;;;;;;;;17.24;47.37;100728.50;4986966;28;9365;-76
2023/06/16 02:57:46;;;;;;;;;;;;;;;17.21;47.16;100726.69;4996727;28;6991;-73
2023/06/16 03:00:13;;;;;;;;;;;;;;;17.18;47.53;100728.31;5011309;28;6780;-75
2023/06/16 03:02:40;;;;;;;;;;;;;;;17.16;47.69;100728.28;4979875;28;6800;-75
2023/06/16 03:05:06;;;;;;;;;;;;;;;17.14;47.86;100735.16;4997712;28;6811;-75
2023/06/16 03:07:34;;;;;;;;;;;;;;;17.12;47.45;100731.63;4995698;28;6868;-75
2023/06/16 03:10:07;;;;;;;;;;;;;;;17.08;47.92;100728.06;4995427;28;7199;-74
2023/06/16 03:12:33;;;;;;;;;;;;;;;17.06;47.81;100732.34;4996091;28;6964;-74
2023/06/16 03:14:58;;;;;;;;;;;;;;;17.04;47.86;100731.44;4967061;28;7040;-74
2023/06/16 03:17:24;;;;;;;;;;;;;;;17.02;48.31;100727.94;5013483;28;6787;-74
2023/06/16 03:19:51;;;;;;;;;;;;;;;17.00;47.78;100732.19;5015749;28;7009;-74
2023/06/16 03:22:16;;;;;;;;;;;;;;;16.98;47.88;100739.00;5013186;28;7133;-74
2023/06/16 03:24:43;;;;;;;;;;;;;;;16.94;47.65;100734.56;4982081;28;7179;-74
2023/06/16 03:27:10;;;;;;;;;;;;;;;16.92;48.27;100737.13;5017060;28;6800;-74
2023/06/16 03:29:36;;;;;;;;;;;;;;;16.93;48.18;100738.00;5004572;28;6980;-74
2023/06/16 03:32:04;;;;;;;;;;;;;;;16.92;48.23;100738.84;4974699;28;6804;-74
2023/06/16 03:34:30;;;;;;;;;;;;;;;16.92;48.64;100736.25;5001331;28;6800;-76
2023/06/16 03:36:57;;;;;;;;;;;;;;;16.93;48.55;100740.59;5009980;28;6776;-73
2023/06/16 03:39:23;;;;;;;;;;;;;;;16.94;48.69;100742.34;4993101;28;7746;-73
2023/06/16 03:41:48;;;;;;;;;;;;;;;16.95;48.87;100738.91;4993052;28;7198;-74
2023/06/16 03:44:14;;;;;;;;;;;;;;;16.96;48.68;100739.81;4970473;28;7122;-74
2023/06/16 03:46:40;;;;;;;;;;;;;;;16.97;48.56;100746.75;4988445;28;7973;-77
2023/06/16 03:49:07;;;;;;;;;;;;;;;16.98;48.91;100745.91;4992185;28;7198;-75
2023/06/16 03:51:33;;;;;;;;;;;;;;;16.98;48.86;100739.00;4970713;28;7019;-76
2023/06/16 03:53:59;;;;;;;;;;;;;;;17.01;48.96;100744.31;4947012;28;7274;-74
2023/06/16 03:56:25;;;;;;;;;;;;;;;17.03;48.82;100737.44;4964776;28;7110;-77
2023/06/16 03:58:51;;;;;;;;;;;;;;;17.06;48.68;100736.66;4972304;28;7193;-76
2023/06/16 04:01:21;;;;;;;;;;;;;;;17.11;49.31;100744.56;4955878;28;6871;-75
2023/06/16 04:03:49;;;;;;;;;;;;;;;17.15;49.38;100741.19;4981107;28;6832;-72
2023/06/16 04:06:15;;;;;;;;;;;;;;;17.22;49.22;100748.28;4964145;28;6872;-74
2023/06/16 04:08:40;;;;;;;;;;;;;;;17.29;49.28;100749.31;4958678;28;6760;-73
2023/06/16 04:11:06;;;;;;;;;;;;;;;17.34;49.00;100748.59;4950586;28;7288;-73
2023/06/16 04:13:31;;;;;;;;;;;;;;;17.41;48.78;100748.78;4959465;28;6840;-71
2023/06/16 04:15:57;;;;;;;;;;;;;;;17.50;49.12;100743.81;4994910;28;6918;-71
2023/06/16 04:18:23;;;;;;;;;;;;;;;17.65;49.20;100753.69;4979222;28;6828;-72
2023/06/16 04:20:48;;;;;;;;;;;;;;;17.91;49.95;100750.81;4977846;28;6903;-74
2023/06/16 04:23:14;;;;;;;;;;;;;;;18.21;49.53;100742.06;4993669;28;6768;-71
2023/06/16 04:25:40;;;;;;;;;;;;;;;18.53;49.60;100748.75;4979646;28;7014;-71
2023/06/16 04:28:07;;;;;;;;;;;;;;;18.86;49.29;100748.56;4994653;28;6803;-75
2023/06/16 04:30:33;;;;;;;;;;;;;;;19.21;49.13;100744.88;4992289;28;6795;-74
2023/06/16 04:33:01;;;;;;;;;;;;;;;19.55;48.80;100748.09;4995283;28;6884;-71
2023/06/16 04:35:31;;;;;;;;;;;;;;;19.90;48.83;100751.22;4996327;28;7420;-75
2023/06/16 04:38:01;;;;;;;;;;;;;;;20.26;48.16;100747.41;4994801;28;6811;-72
2023/06/16 04:40:27;;;;;;;;;;;;;;;20.61;47.78;100749.59;4945768;28;7080;-74
2023/06/16 04:42:53;;;;;;;;;;;;;;;20.95;47.35;100736.97;4973043;28;6788;-73
2023/06/16 04:45:20;;;;;;;;;;;;;;;21.33;46.88;100745.16;4958271;28;7129;-74
2023/06/16 04:47:47;;;;;;;;;;;;;;;21.71;46.72;100741.16;4974228;28;7130;-74
2023/06/16 04:50:15;;;;;;;;;;;;;;;22.10;46.12;100738.78;4978212;28;7252;-73
2023/06/16 04:52:41;;;;;;;;;;;;;;;22.48;45.55;100740.72;4976107;28;7444;-71
2023/06/16 04:55:07;;;;;;;;;;;;;;;22.85;45.31;100738.25;4962829;28;6874;-75
2023/06/16 04:57:34;;;;;;;;;;;;;;;23.25;44.13;100736.59;4965727;28;6951;-71
2023/06/16 05:00:05;;;;;;;;;;;;;;;23.59;42.96;100734.00;4966695;28;6872;-71
2023/06/16 05:02:30;;;;;;;;;;;;;;;23.83;42.10;100740.06;4981564;28;6987;-71
2023/06/16 05:04:56;;;;;;;;;;;;;;;24.02;42.11;100737.41;4968169;28;6772;-73
2023/06/16 05:07:21;;;;;;;;;;;;;;;24.19;42.11;100735.66;4986000;28;7176;-72
2023/06/16 05:09:47;;;;;;;;;;;;;;;24.42;41.66;100742.56;4968257;28;6852;-71
2023/06/16 05:12:13;;;;;;;;;;;;;;;24.70;41.38;100737.19;4985560;28;7206;-74
2023/06/16 05:14:38;;;;;;;;;;;;;;;25.03;40.64;100744.91;4982310;28;6868;-72
2023/06/16 05:17:04;;;;;;;;;;;;;;;25.31;40.21;100735.09;5000804;28;6970;-74
2023/06/16 05:19:33;;;;;;;;;;;;;;;25.62;39.03;100742.72;4948940;28;6973;-73
2023/06/16 05:22:00;;;;;;;;;;;;;;;25.91;38.69;100745.94;4996755;28;7294;-71
2023/06/16 05:24:26;;;;;;;;;;;;;;;26.14;38.37;100737.81;4984287;28;6974;-72
2023/06/16 05:26:51;;;;;;;;;;;;;;;26.32;37.68;100736.78;5004090;28;7032;-71
2023/06/16 05:29:17;;;;;;;;;;;;;;;26.45;37.29;100741.84;5000358;28;7190;-72
2023/06/16 05:31:43;;;;;;;;;;;;;;;26.53;37.28;100744.38;4996057;28;6829;-74
2023/06/16 05:34:08;;;;;;;;;;;;;;;26.56;36.94;100749.63;4991907;28;6788;-71
2023/06/16 05:36:35;;;;;;;;;;;;;;;26.54;36.58;100741.75;4977631;28;7051;-70
2023/06/16 05:39:03;;;;;;;;;;;;;;;26.57;36.39;100744.31;4981367;28;6871;-71
2023/06/16 05:41:29;;;;;;;;;;;;;;;26.65;36.45;100738.94;4966612;28;6808;-72
2023/06/16 05:43:55;;;;;;;;;;;;;;;26.80;35.70;100742.28;4964319;28;6784;-73
2023/06/16 05:46:21;;;;;;;;;;;;;;;26.91;35.69;100750.91;4984784;28;6989;-72
2023/06/16 05:48:47;;;;;;;;;;;;;;;27.07;35.62;100750.69;4984695;28;6852;-74
2023/06/16 05:51:13;;;;;;;;;;;;;;;27.18;35.28;100749.59;4983212;28;8442;-72
2023/06/16 05:53:39;;;;;;;;;;;;;;;27.30;35.27;100755.59;4962096;28;6859;-71
2023/06/16 05:56:04;;;;;;;;;;;;;;;27.38;35.06;100752.81;4999443;28;6951;-72
2023/06/16 05:58:33;;;;;;;;;;;;;;;27.42;34.62;100757.13;5001549;28;7159;-72
2023/06/16 06:00:59;;;;;;;;;;;;;;;27.40;34.41;100754.53;4993094;28;6976;-73
2023/06/16 06:03:25;;;;;;;;;;;;;;;27.30;33.77;100759.06;4950690;28;7143;-72
2023/06/16 06:05:50;;;;;;;;;;;;;;;27.14;33.74;100760.22;5000761;28;6844;-71
2023/06/16 06:08:16;;;;;;;;;;;;;;;26.94;33.63;100760.50;5003387;28;6971;-72
2023/06/16 06:10:42;;;;;;;;;;;;;;;26.72;33.87;100766.03;4999090;28;6946;-73
2023/06/16 06:13:07;;;;;;;;;;;;;;;26.52;33.79;100766.28;5000253;28;6773;-72
2023/06/16 06:15:33;;;;;;;;;;;;;;;26.30;33.57;100769.19;4999443;28;6923;-72
2023/06/16 06:17:58;;;;;;;;;;;;;;;26.09;33.91;100779.03;4983653;28;6771;-71
2023/06/16 06:20:24;;;;;;;;;;;;;;;25.92;33.59;100777.44;4997615;28;6780;-71
2023/06/16 06:22:50;;;;;;;;;;;;;;;25.77;34.13;100777.56;4970457;28;8235;-74
2023/06/16 06:25:16;;;;;;;;;;;;;;;25.64;34.12;100779.44;5001097;28;6768;-71
2023/06/16 06:27:41;;;;;;;;;;;;;;;25.52;34.27;100785.69;4987908;28;6776;-73
2023/06/16 06:30:07;;;;;;;;;;;;;;;25.38;34.45;100783.97;4990275;28;6805;-72
2023/06/16 06:32:34;;;;;;;;;;;;;;;25.29;34.22;100784.03;4962905;28;6792;-73
2023/06/16 06:34:59;;;;;;;;;;;;;;;25.22;34.66;100792.84;4982560;28;6939;-75
2023/06/16 06:37:30;;;;;;;;;;;;;;;25.17;34.93;100789.38;4996639;28;6977;-74
2023/06/16 06:39:56;;;;;;;;;;;;;;;25.12;34.68;100791.19;4993062;28;7157;-73
2023/06/16 06:42:22;;;;;;;;;;;;;;;25.08;34.57;100780.69;4963968;28;6800;-75
2023/06/16 06:44:49;;;;;;;;;;;;;;;25.09;34.63;100789.44;4945744;28;6816;-73
2023/06/16 06:47:14;;;;;;;;;;;;;;;25.10;34.84;100788.56;4997518;28;6950;-74
2023/06/16 06:49:41;;;;;;;;;;;;;;;25.16;34.77;100787.63;5000839;28;7152;-73
2023/06/16 06:52:07;;;;;;;;;;;;;;;25.24;35.41;100793.72;4960719;28;7741;-73
2023/06/16 06:54:33;;;;;;;;;;;;;;;25.36;35.34;100793.63;4960787;28;6776;-74
2023/06/16 06:56:59;;;;;;;;;;;;;;;25.61;35.29;100792.59;4972024;28;6848;-73
2023/06/16 06:59:25;;;;;;;;;;;;;;;25.93;34.90;100796.69;4995398;28;6995;-73
2023/06/16 07:01:50;;;;;;;;;;;;;;;26.33;35.15;100793.69;4977632;28;6947;-72
2023/06/16 07:04:16;;;;;;;;;;;;;;;26.74;34.79;100794.03;4996039;28;7112;-72
2023/06/16 07:06:42;;;;;;;;;;;;;;;27.15;34.48;100793.53;4996223;28;6852;-74
2023/06/16 07:09:07;;;;;;;;;;;;;;;27.59;34.43;100796.38;4968017;28;7203;-74
2023/06/16 07:11:33;;;;;;;;;;;;;;;28.01;34.16;100798.28;4945767;28;8202;-75
2023/06/16 07:14:01;;;;;;;;;;;;;;;28.41;33.92;100794.00;4970433;28;6952;-73
2023/06/16 07:16:28;;;;;;;;;;;;;;;28.82;32.86;100802.84;4980902;28;6819;-73
2023/06/16 07:18:54;;;;;;;;;;;;;;;29.17;33.13;100794.16;4983163;28;7189;-73
2023/06/16 07:21:20;;;;;;;;;;;;;;;29.51;31.88;100796.88;4993645;28;8648;-73
2023/06/16 07:23:45;;;;;;;;;;;;;;;29.82;31.64;100797.88;4971724;28;7827;-73
2023/06/16 07:26:11;;;;;;;;;;;;;;;30.04;30.67;100799.94;4990344;28;7039;-73
2023/06/16 07:28:37;;;;;;;;;;;;;;;30.18;29.63;100799.59;4996324;28;6784;-74
2023/06/16 07:31:03;;;;;;;;;;;;;;;30.33;29.52;100796.53;4947550;28;6982;-74
2023/06/16 07:33:29;;;;;;;;;;;;;;;30.56;29.39;100792.34;4978162;28;6974;-74
2023/06/16 07:35:54;;;;;;;;;;;;;;;30.85;29.69;100801.22;4995397;28;7722;-74
2023/06/16 07:38:20;;;;;;;;;;;;;;;31.16;29.88;100799.38;4992206;28;6792;-73
2023/06/16 07:40:46;;;;;;;;;;;;;;;31.47;29.23;100798.41;4973190;28;8154;-73
2023/06/16 07:43:11;;;;;;;;;;;;;;;31.73;28.95;100799.31;4997862;28;6840;-73
2023/06/16 07:45:37;;;;;;;;;;;;;;;32.01;28.03;100790.38;4977725;28;6779;-73
2023/06/16 07:48:04;;;;;;;;;;;;;;;32.27;27.72;100801.84;4971483;28;6940;-72
2023/06/16 07:50:30;;;;;;;;;;;;;;;32.50;27.02;100793.06;4977958;28;6840;-73
2023/06/16 07:52:56;;;;;;;;;;;;;;;32.72;26.81;100796.69;4958637;28;6788;-74
2023/06/16 07:55:21;;;;;;;;;;;;;;;32.89;26.88;100788.06;4978057;28;6771;-73
2023/06/16 07:57:47;;;;;;;;;;;;;;;32.93;26.27;100789.69;4996230;28;6775;-72
2023/06/16 08:00:14;;;;;;;;;;;;;;;32.86;26.01;100786.38;4985885;28;6848;-72
2023/06/16 08:02:41;;;;;;;;;;;;;;;32.82;26.11;100796.25;4966415;28;7198;-72
2023/06/16 08:05:09;;;;;;;;;;;;;;;32.79;25.96;100791.06;4979961;28;6993;-74
2023/06/16 08:07:35;;;;;;;;;;;;;;;32.83;26.17;100786.50;4966194;28;7358;-74
2023/06/16 08:10:03;;;;;;;;;;;;;;;32.91;25.79;100787.06;4991312;28;6873;-72
2023/06/16 08:12:28;;;;;;;;;;;;;;;33.02;25.96;100789.31;4955310;28;7491;-73
2023/06/16 08:14:54;;;;;;;;;;;;;;;33.18;25.34;100792.22;4993833;28;6780;-73
2023/06/16 08:17:20;;;;;;;;;;;;;;;33.32;25.07;100794.31;4981742;28;7180;-74
2023/06/16 08:19:46;;;;;;;;;;;;;;;33.44;24.95;100795.56;4966384;28;6776;-73
2023/06/16 08:22:11;;;;;;;;;;;;;;;33.57;24.99;100792.44;5000972;28;6776;-74
2023/06/16 08:24:37;;;;;;;;;;;;;;;33.72;24.22;100789.09;4966936;28;7288;-73
2023/06/16 08:27:04;;;;;;;;;;;;;;;33.93;24.71;100787.31;4982163;28;7332;-74
2023/06/16 08:29:30;;;;;;;;;;;;;;;34.21;24.35;100786.09;4985852;28;7678;-73
2023/06/16 08:32:00;;;;;;;;;;;;;;;34.47;24.27;100784.00;4966751;28;6789;-72
2023/06/16 08:34:26;;;;;;;;;;;;;;;34.68;23.86;100783.13;4979084;28;6788;-73
2023/06/16 08:36:51;;;;;;;;;;;;;;;34.88;23.54;100779.50;4967465;28;6784;-73
2023/06/16 08:39:17;;;;;;;;;;;;;;;35.13;23.71;100784.53;5001819;28;6776;-72
2023/06/16 08:41:44;;;;;;;;;;;;;;;35.30;22.78;100783.66;4988198;28;6921;-72
2023/06/16 08:44:10;;;;;;;;;;;;;;;35.48;23.07;100782.81;4971847;28;7248;-69
2023/06/16 08:46:36;;;;;;;;;;;;;;;35.64;22.16;100778.44;4964415;28;6788;-71
2023/06/16 08:49:05;;;;;;;;;;;;;;;35.79;22.09;100770.59;4973095;28;6876;-71
2023/06/16 08:51:34;;;;;;;;;;;;;;;36.00;21.80;100776.56;4963561;28;7158;-72
2023/06/16 08:54:06;;;;;;;;;;;;;;;36.16;21.23;100778.47;4968944;28;6811;-72
2023/06/16 08:56:33;;;;;;;;;;;;;;;36.27;21.16;100776.06;4968254;28;6804;-70
2023/06/16 08:59:05;;;;;;;;;;;;;;;36.40;21.03;100773.59;4984604;28;6784;-72
2023/06/16 09:01:39;;;;;;;;;;;;;;;36.50;20.64;100766.78;4971902;28;6807;-71
2023/06/16 09:04:08;;;;;;;;;;;;;;;36.72;20.83;100772.75;4973060;28;6804;-71
2023/06/16 09:06:43;;;;;;;;;;;;;;;37.05;20.51;100780.69;4960321;28;7102;-72
2023/06/16 09:09:09;;;;;;;;;;;;;;;37.34;20.45;100772.75;4967295;28;7295;-71
2023/06/16 09:11:35;;;;;;;;;;;;;;;37.58;20.02;100779.44;4970921;28;7294;-71
2023/06/16 09:14:11;;;;;;;;;;;;;;;37.69;19.87;100773.41;4994615;28;6804;-72
2023/06/16 09:16:39;;;;;;;;;;;;;;;37.88;19.72;100779.34;4980281;28;6796;-71
2023/06/16 09:19:09;;;;;;;;;;;;;;;38.05;19.23;100778.34;4998490;28;6983;-70
2023/06/16 09:21:37;;;;;;;;;;;;;;;38.10;18.84;100772.72;4983245;28;7182;-71
2023/06/16 09:24:04;;;;;;;;;;;;;;;38.03;18.97;100774.03;4983821;28;7145;-71
2023/06/16 09:26:38;;;;;;;;;;;;;;;38.01;18.93;100782.16;4998968;28;6823;-72
2023/06/16 09:29:24;;;;;;;;;;;;;;;38.05;18.37;100770.31;4965632;28;7084;-72
2023/06/16 09:31:51;;;;;;;;;;;;;;;38.26;18.60;100775.28;4965829;28;7679;-72
2023/06/16 09:34:17;;;;;;;;;;;;;;;38.47;18.03;100766.81;4990962;28;6940;-71
2023/06/16 09:36:43;;;;;;;;;;;;;;;38.57;17.68;100767.97;4986787;28;7335;-72
2023/06/16 09:39:26;;;;;;;;;;;;;;;38.60;17.33;100762.41;4999932;28;6788;-72
2023/06/16 09:41:53;;;;;;;;;;;;;;;38.73;17.65;100766.97;4951362;28;7098;-72
2023/06/16 09:44:23;;;;;;;;;;;;;;;38.98;17.60;100765.34;4980011;28;6863;-71
2023/06/16 09:46:51;;;;;;;;;;;;;;;39.25;17.28;100765.31;4978612;28;6999;-72
2023/06/16 09:49:25;;;;;;;;;;;;;;;39.50;17.30;100771.69;4966639;28;7043;-71
2023/06/16 09:51:57;;;;;;;;;;;;;;;39.76;16.85;100769.03;4971086;28;7094;-71
2023/06/16 09:54:25;;;;;;;;;;;;;;;40.08;16.13;100771.28;4969196;28;6931;-72
2023/06/16 09:56:55;;;;;;;;;;;;;;;40.33;16.00;100764.19;4968070;28;6800;-72
2023/06/16 09:59:23;;;;;;;;;;;;;;;40.48;15.72;100762.19;4975705;28;7251;-72
2023/06/16 10:01:52;;;;;;;;;;;;;;;40.61;15.48;100767.53;4999563;28;6803;-72
2023/06/16 10:04:20;;;;;;;;;;;;;;;40.77;15.45;100764.56;4966928;28;6915;-70
2023/06/16 10:07:08;;;;;;;;;;;;;;;40.68;14.46;100765.22;4966983;28;6796;-71
2023/06/16 10:09:47;;;;;;;;;;;;;;;40.43;14.78;100760.81;4967707;28;6816;-72
2023/06/16 10:12:15;;;;;;;;;;;;;;;40.31;14.69;100754.47;4981673;28;6970;-70
2023/06/16 10:14:41;;;;;;;;;;;;;;;40.20;14.93;100753.44;4982970;28;6895;-72
2023/06/16 10:17:13;;;;;;;;;;;;;;;40.12;14.68;100753.13;4983513;28;7177;-70
2023/06/16 10:19:46;;;;;;;;;;;;;;;39.98;14.81;100754.13;4981670;28;7318;-72
2023/06/16 10:22:13;;;;;;;;;;;;;;;39.89;15.15;100750.28;5002866;28;7040;-71
2023/06/16 10:24:40;;;;;;;;;;;;;;;40.06;14.80;100745.50;5000246;28;6950;-72
2023/06/16 10:27:08;;;;;;;;;;;;;;;40.31;15.08;100746.44;4982220;28;6992;-71
2023/06/16 10:29:35;;;;;;;;;;;;;;;40.49;14.87;100753.16;4983005;28;7050;-71
2023/06/16 10:32:10;;;;;;;;;;;;;;;40.59;14.61;100747.13;4966087;28;11637;-70
2023/06/16 10:34:49;;;;;;;;;;;;;;;40.27;14.41;100749.34;4961041;28;7332;-71
2023/06/16 10:37:22;;;;;;;;;;;;;;;40.07;15.00;100744.53;4966819;28;6836;-71
2023/06/16 10:39:47;;;;;;;;;;;;;;;40.21;15.09;100741.72;4968834;28;7174;-70
2023/06/16 10:42:15;;;;;;;;;;;;;;;40.51;15.16;100742.28;4984089;28;6788;-72
2023/06/16 10:44:43;;;;;;;;;;;;;;;40.82;14.40;100737.38;4968410;28;7011;-72
2023/06/16 10:47:08;;;;;;;;;;;;;;;41.22;14.35;100733.47;4996849;28;6983;-69
2023/06/16 10:49:50;;;;;;;;;;;;;;;41.46;13.65;100729.88;4983037;28;6792;-71
2023/06/16 10:52:32;;;;;;;;;;;;;;;41.46;13.37;100735.25;4980100;28;6808;-72
2023/06/16 10:55:27;;;;;;;;;;;;;;;41.45;13.11;100729.00;4964586;28;7972;-71
2023/06/16 10:58:19;;;;;;;;;;;;;;;41.26;13.02;100732.28;4960050;28;6880;-71
2023/06/16 11:01:02;;;;;;;;;;;;;;;41.17;13.38;100730.28;4982011;28;7243;-72
2023/06/16 11:03:33;;;;;;;;;;;;;;;41.26;13.50;100728.72;4982641;28;6788;-72
2023/06/16 11:06:00;;;;;;;;;;;;;;;41.13;13.27;100726.09;4986604;28;7125;-70
2023/06/16 11:08:28;;;;;;;;;;;;;;;40.89;13.46;100732.38;4998400;28;6784;-69
2023/06/16 11:11:05;;;;;;;;;;;;;;;40.82;13.30;100730.16;4997825;28;8559;-71
2023/06/16 11:13:35;;;;;;;;;;;;;;;40.92;13.28;100724.94;4965718;28;6800;-71
2023/06/16 11:16:02;;;;;;;;;;;;;;;40.97;13.15;100724.59;4981453;28;6864;-71
2023/06/16 11:18:33;;;;;;;;;;;;;;;41.02;13.09;100725.09;4957133;28;8144;-71
2023/06/16 11:21:08;;;;;;;;;;;;;;;41.06;13.54;100729.28;4964294;28;7850;-71
2023/06/16 11:23:34;;;;;;;;;;;;;;;41.14;13.30;100725.97;4962023;28;7106;-72
2023/06/16 11:26:09;;;;;;;;;;;;;;;41.07;13.32;100725.59;4978726;28;6987;-72
2023/06/16 11:28:40;;;;;;;;;;;;;;;41.03;13.28;100720.59;4964439;28;6807;-71
2023/06/16 11:31:11;;;;;;;;;;;;;;;41.20;13.90;100712.13;4987456;28;6784;-72
2023/06/16 11:33:39;;;;;;;;;;;;;;;41.50;13.46;100709.81;4983236;28;6875;-72
2023/06/16 11:36:20;;;;;;;;;;;;;;;41.65;13.55;100707.78;4964781;28;6876;-72
2023/06/16 11:38:52;;;;;;;;;;;;;;;41.82;12.84;100702.88;4965744;28;6804;-72
2023/06/16 11:41:27;;;;;;;;;;;;;;;42.05;13.42;100715.31;4960190;28;7210;-72
2023/06/16 11:43:54;;;;;;;;;;;;;;;42.19;13.17;100708.84;4980050;28;6804;-71
2023/06/16 11:46:25;;;;;;;;;;;;;;;42.03;12.81;100706.50;4951602;28;7316;-72
2023/06/16 11:48:52;;;;;;;;;;;;;;;41.72;12.76;100697.38;4971734;28;7290;-71
2023/06/16 11:51:19;;;;;;;;;;;;;;;41.49;12.69;100708.09;4947469;28;6792;-70
2023/06/16 11:53:46;;;;;;;;;;;;;;;41.28;12.50;100711.50;4985287;28;6804;-72
2023/06/16 11:56:15;;;;;;;;;;;;;;;41.05;12.92;100711.44;4967674;28;6813;-72
2023/06/16 11:58:43;;;;;;;;;;;;;;;40.92;13.12;100705.28;4967590;28;7236;-71
2023/06/16 12:01:13;;;;;;;;;;;;;;;40.89;12.89;100700.97;4982796;28;7238;-72
2023/06/16 12:03:40;;;;;;;;;;;;;;;40.95;13.02;100705.03;4969182;28;6821;-71
2023/06/16 12:06:07;;;;;;;;;;;;;;;40.88;13.19;100703.81;4981008;28;6983;-72
2023/06/16 12:09:01;;;;;;;;;;;;;;;40.88;13.04;100706.50;4982784;28;7334;-72
2023/06/16 12:11:30;;;;;;;;;;;;;;;40.79;12.96;100699.97;4981899;28;6978;-72
2023/06/16 12:13:57;;;;;;;;;;;;;;;40.74;13.04;100694.91;4984201;28;7254;-72
2023/06/16 12:16:23;;;;;;;;;;;;;;;40.90;13.68;100689.28;4967944;28;7266;-71
2023/06/16 12:18:51;;;;;;;;;;;;;;;41.22;13.46;100690.47;5000048;28;6795;-72
2023/06/16 12:21:23;;;;;;;;;;;;;;;41.59;12.93;100684.03;4968167;28;7174;-72
2023/06/16 12:23:57;;;;;;;;;;;;;;;41.74;12.59;100680.13;4983399;28;7261;-72
2023/06/16 12:26:45;;;;;;;;;;;;;;;41.67;12.65;100684.28;4966843;28;6804;-72
2023/06/16 12:29:13;;;;;;;;;;;;;;;41.49;12.77;100686.59;4966898;28;6993;-72
2023/06/16 12:31:58;;;;;;;;;;;;;;;41.44;12.44;100673.50;4968030;28;6808;-72
2023/06/16 12:34:30;;;;;;;;;;;;;;;41.57;12.97;100676.09;4984084;28;7273;-72
2023/06/16 12:37:03;;;;;;;;;;;;;;;41.79;12.46;100674.38;4947549;28;7200;-71
2023/06/16 12:39:30;;;;;;;;;;;;;;;41.85;12.61;100670.34;4966124;28;7650;-71
2023/06/16 12:42:04;;;;;;;;;;;;;;;41.70;12.12;100672.44;4983787;28;6804;-72
2023/06/16 12:44:45;;;;;;;;;;;;;;;41.42;12.24;100666.53;4954061;28;6803;-71
2023/06/16 12:47:16;;;;;;;;;;;;;;;41.17;12.55;100673.84;4986286;28;6779;-71
2023/06/16 12:49:43;;;;;;;;;;;;;;;40.86;12.55;100669.00;4969816;28;6820;-70
2023/06/16 12:52:11;;;;;;;;;;;;;;;40.68;12.86;100672.06;4984305;28;6833;-72
2023/06/16 12:54:37;;;;;;;;;;;;;;;40.69;12.96;100668.41;4995427;28;7373;-70